createdAt,value
2023-04-13T00:00:08.742Z,94975.50
2023-04-13T00:01:16.559Z,94973.91
2023-04-13T00:02:18.818Z,94973.91
2023-04-13T00:03:24.666Z,94977.47
2023-04-13T00:04:27.870Z,94969.97
2023-04-13T00:05:34.666Z,94972.56
2023-04-13T00:06:48.888Z,94979.53
2023-04-13T00:07:54.712Z,94979.63
2023-04-13T00:08:57.047Z,94984.00
2023-04-13T00:10:02.837Z,94977.22
2023-04-13T00:11:06.228Z,94980.63
2023-04-13T00:12:11.441Z,94983.88
2023-04-13T00:13:15.213Z,94975.53
2023-04-13T00:14:20.463Z,94985.13
2023-04-13T00:15:22.606Z,94975.69
2023-04-13T00:16:31.853Z,94983.72
2023-04-13T00:17:34.206Z,94975.41
2023-04-13T00:18:40.262Z,94989.16
2023-04-13T00:19:43.313Z,94993.50
2023-04-13T00:20:48.232Z,94983.53
2023-04-13T00:21:50.406Z,94984.59
2023-04-13T00:22:55.639Z,94989.88
2023-04-13T00:23:57.999Z,94990.13
2023-04-13T00:25:03.194Z,94993.47
2023-04-13T00:26:06.060Z,94991.53
2023-04-13T00:27:11.033Z,94997.91
2023-04-13T00:28:13.357Z,94997.13
2023-04-13T00:29:18.496Z,95001.38
2023-04-13T00:30:21.738Z,94998.06
2023-04-13T00:31:29.738Z,94996.22
2023-04-13T00:32:31.974Z,94994.44
2023-04-13T00:33:36.848Z,94998.75
2023-04-13T00:34:40.235Z,95001.09
2023-04-13T00:35:45.178Z,95001.22
2023-04-13T00:36:47.412Z,95001.31
2023-04-13T00:37:52.397Z,95001.22
2023-04-13T00:38:54.862Z,94994.44
2023-04-13T00:40:00.083Z,95002.91
2023-04-13T00:41:05.173Z,95004.56
2023-04-13T00:42:08.913Z,94995.25
2023-04-13T00:43:16.894Z,94989.00
2023-04-13T00:44:20.025Z,94980.56
2023-04-13T00:45:25.370Z,94987.50
2023-04-13T00:46:32.483Z,94978.09
2023-04-13T00:47:37.731Z,94990.19
2023-04-13T00:48:42.941Z,94992.06
2023-04-13T00:49:45.450Z,94989.56
2023-04-13T00:50:50.897Z,94987.00
2023-04-13T00:51:53.414Z,94998.94
2023-04-13T00:52:58.604Z,95004.31
2023-04-13T00:54:01.858Z,95005.41
2023-04-13T00:55:07.906Z,95003.72
2023-04-13T00:56:11.201Z,95014.16
2023-04-13T00:57:16.258Z,95011.53
2023-04-13T00:58:18.517Z,95012.25
2023-04-13T00:59:23.908Z,95018.38
2023-04-13T01:00:27.508Z,95015.81
2023-04-13T01:01:35.977Z,95014.44
2023-04-13T01:02:42.799Z,95017.19
2023-04-13T01:03:48.537Z,95027.31
2023-04-13T01:04:51.412Z,95027.47
2023-04-13T01:06:06.734Z,95025.13
2023-04-13T01:07:16.233Z,95029.22
2023-04-13T01:08:28.784Z,95030.25
2023-04-13T01:09:38.816Z,95032.81
2023-04-13T01:10:49.630Z,95030.41
2023-04-13T01:12:00.022Z,95032.06
2023-04-13T01:13:25.422Z,95042.31
2023-04-13T01:14:34.076Z,95043.69
2023-04-13T01:15:43.142Z,95047.19
2023-04-13T01:16:55.289Z,95055.56
2023-04-13T01:18:10.937Z,95050.25
2023-04-13T01:19:36.182Z,95059.75
2023-04-13T01:20:43.840Z,95050.53
2023-04-13T01:21:46.377Z,95048.84
2023-04-13T01:22:57.649Z,95043.84
2023-04-13T01:24:18.104Z,95043.78
2023-04-13T01:25:37.025Z,95042.03
2023-04-13T01:26:50.431Z,95035.75
2023-04-13T01:28:00.638Z,95034.69
2023-04-13T01:29:03.315Z,95041.22
2023-04-13T01:30:11.004Z,95036.09
2023-04-13T01:31:17.616Z,95030.09
2023-04-13T01:32:20.344Z,95028.59
2023-04-13T01:33:25.746Z,95026.56
2023-04-13T01:34:28.672Z,95022.19
2023-04-13T01:35:34.594Z,95021.38
2023-04-13T01:36:40.134Z,95022.19
2023-04-13T01:37:45.798Z,95015.41
2023-04-13T01:38:50.846Z,95024.84
2023-04-13T01:39:53.105Z,95027.47
2023-04-13T01:40:58.460Z,95026.03
2023-04-13T01:42:00.996Z,95012.22
2023-04-13T01:43:11.905Z,95014.44
2023-04-13T01:44:14.506Z,95010.41
2023-04-13T01:45:21.874Z,95001.06
2023-04-13T01:46:28.446Z,95004.31
2023-04-13T01:47:37.857Z,95000.69
2023-04-13T01:48:45.911Z,94991.81
2023-04-13T01:49:57.892Z,94990.41
2023-04-13T01:51:04.482Z,94990.28
2023-04-13T01:52:11.779Z,94991.81
2023-04-13T01:53:20.231Z,94984.94
2023-04-13T01:54:28.964Z,94986.53
2023-04-13T01:55:33.405Z,94990.00
2023-04-13T01:56:39.391Z,94986.97
2023-04-13T01:57:47.556Z,94986.25
2023-04-13T01:59:00.457Z,94981.47
2023-04-13T02:00:14.906Z,94977.38
2023-04-13T02:01:19.970Z,94984.19
2023-04-13T02:02:23.493Z,94986.75
2023-04-13T02:03:29.342Z,94980.91
2023-04-13T02:04:32.174Z,94985.34
2023-04-13T02:05:40.436Z,94981.38
2023-04-13T02:06:42.776Z,94976.13
2023-04-13T02:07:48.124Z,94981.53
2023-04-13T02:08:52.642Z,94981.03
2023-04-13T02:09:58.068Z,94977.97
2023-04-13T02:11:01.219Z,94982.34
2023-04-13T02:12:08.643Z,94981.25
2023-04-13T02:13:13.825Z,94987.75
2023-04-13T02:14:21.899Z,94988.47
2023-04-13T02:15:24.132Z,94991.03
2023-04-13T02:16:29.211Z,94989.34
2023-04-13T02:17:31.589Z,94992.06
2023-04-13T02:18:37.038Z,94990.91
2023-04-13T02:19:39.512Z,94987.75
2023-04-13T02:20:47.360Z,94995.44
2023-04-13T02:21:49.665Z,94993.03
2023-04-13T02:22:55.296Z,95004.97
2023-04-13T02:23:58.170Z,95007.03
2023-04-13T02:25:03.750Z,94997.88
2023-04-13T02:26:08.109Z,95005.06
2023-04-13T02:27:13.379Z,95000.94
2023-04-13T02:28:16.588Z,95007.00
2023-04-13T02:29:24.792Z,95003.66
2023-04-13T02:30:28.345Z,95005.56
2023-04-13T02:31:34.041Z,95006.44
2023-04-13T02:32:38.506Z,95009.00
2023-04-13T02:33:43.748Z,94998.75
2023-04-13T02:34:46.365Z,95008.53
2023-04-13T02:35:51.420Z,95000.94
2023-04-13T02:36:53.961Z,95005.47
2023-04-13T02:37:59.081Z,95009.81
2023-04-13T02:39:01.819Z,94999.69
2023-04-13T02:40:09.016Z,95010.06
2023-04-13T02:41:11.882Z,95018.16
2023-04-13T02:42:16.721Z,95006.88
2023-04-13T02:43:18.885Z,95010.91
2023-04-13T02:44:27.397Z,95012.25
2023-04-13T02:45:31.079Z,95004.34
2023-04-13T02:46:36.291Z,95007.91
2023-04-13T02:47:39.089Z,95011.56
2023-04-13T02:48:44.037Z,95010.38
2023-04-13T02:49:47.301Z,95002.41
2023-04-13T02:50:52.753Z,95009.84
2023-04-13T02:51:55.343Z,95004.72
2023-04-13T02:53:00.165Z,95006.53
2023-04-13T02:54:03.553Z,95006.00
2023-04-13T02:55:10.330Z,95002.59
2023-04-13T02:56:14.519Z,95007.66
2023-04-13T02:57:19.307Z,95005.44
2023-04-13T02:58:23.539Z,95009.78
2023-04-13T02:59:31.547Z,95002.47
2023-04-13T03:00:34.097Z,95005.66
2023-04-13T03:01:40.097Z,95003.16
2023-04-13T03:02:43.049Z,95010.94
2023-04-13T03:03:48.187Z,95019.50
2023-04-13T03:04:50.911Z,95012.59
2023-04-13T03:05:55.914Z,95010.03
2023-04-13T03:06:58.971Z,95014.47
2023-04-13T03:08:05.505Z,95012.72
2023-04-13T03:09:08.200Z,95008.50
2023-04-13T03:10:14.291Z,95009.88
2023-04-13T03:11:17.075Z,95013.28
2023-04-13T03:12:22.842Z,95020.22
2023-04-13T03:13:25.212Z,95020.81
2023-04-13T03:14:33.742Z,95015.41
2023-04-13T03:15:35.960Z,95017.28
2023-04-13T03:16:40.963Z,95017.13
2023-04-13T03:17:44.362Z,95017.28
2023-04-13T03:18:51.663Z,95018.03
2023-04-13T03:19:54.287Z,95006.94
2023-04-13T03:20:59.153Z,95013.94
2023-04-13T03:22:01.683Z,95012.34
2023-04-13T03:23:06.757Z,95014.22
2023-04-13T03:24:09.700Z,95019.34
2023-04-13T03:25:17.680Z,95010.69
2023-04-13T03:26:19.937Z,95011.66
2023-04-13T03:27:24.999Z,95015.25
2023-04-13T03:28:27.207Z,95015.25
2023-04-13T03:29:35.065Z,95015.38
2023-04-13T03:30:37.888Z,95010.38
2023-04-13T03:31:45.812Z,95019.50
2023-04-13T03:32:48.396Z,95016.94
2023-04-13T03:33:53.676Z,95015.88
2023-04-13T03:34:55.843Z,95022.34
2023-04-13T03:36:00.834Z,95017.97
2023-04-13T03:37:06.113Z,95014.63
2023-04-13T03:38:08.322Z,95011.88
2023-04-13T03:39:13.537Z,95009.44
2023-04-13T03:40:15.803Z,95017.91
2023-04-13T03:41:20.832Z,95015.25
2023-04-13T03:42:23.063Z,95019.56
2023-04-13T03:43:27.845Z,95017.19
2023-04-13T03:44:33.098Z,95015.41
2023-04-13T03:45:38.224Z,95024.69
2023-04-13T03:46:41.646Z,95013.81
2023-04-13T03:47:46.617Z,95022.13
2023-04-13T03:48:48.975Z,95024.84
2023-04-13T03:49:54.022Z,95020.53
2023-04-13T03:50:56.482Z,95019.03
2023-04-13T03:52:01.439Z,95024.34
2023-04-13T03:53:03.657Z,95014.84
2023-04-13T03:54:09.721Z,95021.66
2023-04-13T03:55:12.084Z,95017.19
2023-04-13T03:56:17.186Z,95008.63
2023-04-13T03:57:19.389Z,95019.72
2023-04-13T03:58:24.267Z,95018.03
2023-04-13T03:59:26.530Z,95013.66
2023-04-13T04:00:34.223Z,95016.22
2023-04-13T04:01:36.731Z,95014.63
2023-04-13T04:02:41.934Z,95016.31
2023-04-13T04:03:44.560Z,95021.50
2023-04-13T04:04:49.844Z,95020.81
2023-04-13T04:05:52.168Z,95027.47
2023-04-13T04:06:58.269Z,95017.28
2023-04-13T04:08:00.482Z,95018.44
2023-04-13T04:09:05.584Z,95023.72
2023-04-13T04:10:09.205Z,95023.16
2023-04-13T04:11:14.096Z,95024.13
2023-04-13T04:12:16.552Z,95023.31
2023-04-13T04:13:21.296Z,95030.28
2023-04-13T04:14:23.750Z,95033.75
2023-04-13T04:15:28.911Z,95039.66
2023-04-13T04:16:33.730Z,95034.66
2023-04-13T04:17:40.072Z,95039.81
2023-04-13T04:18:42.373Z,95030.69
2023-04-13T04:19:47.100Z,95027.56
2023-04-13T04:20:49.290Z,95031.16
2023-04-13T04:21:54.081Z,95027.88
2023-04-13T04:23:01.137Z,95029.75
2023-04-13T04:24:06.798Z,95028.91
2023-04-13T04:25:10.361Z,95030.44
2023-04-13T04:26:15.255Z,95031.16
2023-04-13T04:27:20.223Z,95037.25
2023-04-13T04:28:22.345Z,95028.03
2023-04-13T04:29:30.095Z,95030.59
2023-04-13T04:30:34.089Z,95030.50
2023-04-13T04:31:44.086Z,95034.75
2023-04-13T04:32:46.311Z,95038.16
2023-04-13T04:33:51.991Z,95033.94
2023-04-13T04:34:54.203Z,95029.69
2023-04-13T04:35:58.924Z,95032.25
2023-04-13T04:37:08.124Z,95029.63
2023-04-13T04:38:19.122Z,95032.25
2023-04-13T04:39:22.817Z,95028.72
2023-04-13T04:40:28.199Z,95034.66
2023-04-13T04:41:31.473Z,95025.06
2023-04-13T04:42:37.383Z,95038.53
2023-04-13T04:43:39.626Z,95035.69
2023-04-13T04:44:45.221Z,95037.34
2023-04-13T04:45:52.322Z,95041.31
2023-04-13T04:47:00.427Z,95040.50
2023-04-13T04:48:04.204Z,95041.41
2023-04-13T04:49:09.032Z,95030.78
2023-04-13T04:50:12.731Z,95031.28
2023-04-13T04:51:17.786Z,95040.38
2023-04-13T04:52:21.671Z,95034.97
2023-04-13T04:53:27.778Z,95040.75
2023-04-13T04:54:29.859Z,95042.34
2023-04-13T04:55:35.266Z,95048.34
2023-04-13T04:56:37.453Z,95046.50
2023-04-13T04:57:42.215Z,95044.81
2023-04-13T04:58:44.906Z,95047.41
2023-04-13T04:59:49.711Z,95049.97
2023-04-13T05:00:53.523Z,95042.41
2023-04-13T05:02:01.346Z,95046.38
2023-04-13T05:03:03.628Z,95049.69
2023-04-13T05:04:08.518Z,95049.97
2023-04-13T05:05:11.993Z,95048.44
2023-04-13T05:06:17.087Z,95058.72
2023-04-13T05:07:19.279Z,95057.75
2023-04-13T05:08:24.323Z,95048.31
2023-04-13T05:09:26.934Z,95057.66
2023-04-13T05:10:31.919Z,95051.50
2023-04-13T05:11:34.395Z,95050.94
2023-04-13T05:12:39.600Z,95043.22
2023-04-13T05:13:42.165Z,95049.28
2023-04-13T05:14:48.684Z,95038.16
2023-04-13T05:15:50.843Z,95051.91
2023-04-13T05:16:55.717Z,95046.75
2023-04-13T05:18:00.777Z,95051.75
2023-04-13T05:19:08.725Z,95052.53
2023-04-13T05:20:12.054Z,95053.16
2023-04-13T05:21:18.993Z,95048.03
2023-04-13T05:22:21.686Z,95047.19
2023-04-13T05:23:27.564Z,95053.22
2023-04-13T05:24:29.646Z,95050.59
2023-04-13T05:25:34.537Z,95050.66
2023-04-13T05:26:36.735Z,95055.09
2023-04-13T05:27:41.542Z,95056.78
2023-04-13T05:28:43.708Z,95056.88
2023-04-13T05:29:48.797Z,95049.69
2023-04-13T05:30:51.285Z,95053.16
2023-04-13T05:31:56.128Z,95046.22
2023-04-13T05:33:05.924Z,95053.69
2023-04-13T05:34:12.009Z,95064.84
2023-04-13T05:35:14.133Z,95068.22
2023-04-13T05:36:19.435Z,95061.06
2023-04-13T05:37:21.729Z,95071.06
2023-04-13T05:38:26.704Z,95065.38
2023-04-13T05:39:29.372Z,95063.72
2023-04-13T05:40:35.206Z,95068.63
2023-04-13T05:41:37.446Z,95067.75
2023-04-13T05:42:42.785Z,95075.81
2023-04-13T05:43:46.385Z,95077.59
2023-04-13T05:44:51.548Z,95079.19
2023-04-13T05:45:56.406Z,95072.66
2023-04-13T05:46:58.568Z,95076.78
2023-04-13T05:48:05.986Z,95082.53
2023-04-13T05:49:08.647Z,95075.81
2023-04-13T05:50:14.429Z,95073.81
2023-04-13T05:51:16.862Z,95077.31
2023-04-13T05:52:22.226Z,95078.16
2023-04-13T05:53:24.514Z,95073.56
2023-04-13T05:54:29.558Z,95075.50
2023-04-13T05:55:32.894Z,95075.50
2023-04-13T05:56:38.210Z,95078.00
2023-04-13T05:57:41.037Z,95077.75
2023-04-13T05:58:46.221Z,95082.03
2023-04-13T05:59:48.632Z,95082.03
2023-04-13T06:00:53.382Z,95086.47
2023-04-13T06:01:59.418Z,95084.53
2023-04-13T06:03:04.513Z,95086.28
2023-04-13T06:04:12.149Z,95085.91
2023-04-13T06:05:15.342Z,95077.44
2023-04-13T06:06:21.332Z,95086.13
2023-04-13T06:07:28.325Z,95080.84
2023-04-13T06:08:32.971Z,95077.31
2023-04-13T06:09:39.438Z,95081.31
2023-04-13T06:10:44.697Z,95076.34
2023-04-13T06:11:49.614Z,95092.28
2023-04-13T06:12:53.468Z,95085.34
2023-04-13T06:14:00.166Z,95091.94
2023-04-13T06:15:05.626Z,95082.66
2023-04-13T06:16:09.371Z,95080.38
2023-04-13T06:17:14.519Z,95084.22
2023-04-13T06:18:22.402Z,95076.50
2023-04-13T06:19:29.005Z,95079.22
2023-04-13T06:20:34.806Z,95078.16
2023-04-13T06:21:36.975Z,95078.41
2023-04-13T06:22:42.124Z,95079.38
2023-04-13T06:23:44.340Z,95075.44
2023-04-13T06:24:49.281Z,95076.84
2023-04-13T06:25:55.250Z,95074.31
2023-04-13T06:27:00.381Z,95075.19
2023-04-13T06:28:02.711Z,95078.34
2023-04-13T06:29:07.705Z,95080.31
2023-04-13T06:30:11.315Z,95076.00
2023-04-13T06:31:16.813Z,95073.19
2023-04-13T06:32:19.079Z,95084.72
2023-04-13T06:33:26.804Z,95082.97
2023-04-13T06:34:28.958Z,95087.91
2023-04-13T06:35:34.272Z,95081.94
2023-04-13T06:36:37.870Z,95080.72
2023-04-13T06:37:42.676Z,95081.16
2023-04-13T06:38:45.612Z,95084.25
2023-04-13T06:39:50.552Z,95081.78
2023-04-13T06:40:52.994Z,95083.81
2023-04-13T06:41:57.885Z,95090.72
2023-04-13T06:43:02.897Z,95079.13
2023-04-13T06:44:10.449Z,95086.75
2023-04-13T06:45:13.814Z,95084.44
2023-04-13T06:46:19.930Z,95088.50
2023-04-13T06:47:22.370Z,95091.34
2023-04-13T06:48:30.259Z,95087.00
2023-04-13T06:49:33.061Z,95086.56
2023-04-13T06:50:37.895Z,95086.84
2023-04-13T06:51:40.192Z,95085.78
2023-04-13T06:52:45.704Z,95091.41
2023-04-13T06:53:51.672Z,95091.47
2023-04-13T06:54:53.851Z,95089.75
2023-04-13T06:55:58.913Z,95090.31
2023-04-13T06:57:02.579Z,95096.75
2023-04-13T06:58:07.576Z,95092.44
2023-04-13T06:59:09.851Z,95096.91
2023-04-13T07:00:28.974Z,95096.97
2023-04-13T07:01:35.041Z,95090.47
2023-04-13T07:02:37.493Z,95101.59
2023-04-13T07:03:45.510Z,95082.44
2023-04-13T07:04:47.961Z,95091.59
2023-04-13T07:05:53.175Z,95092.22
2023-04-13T07:06:55.371Z,95092.31
2023-04-13T07:08:00.164Z,95098.72
2023-04-13T07:09:02.362Z,95097.59
2023-04-13T07:10:08.132Z,95091.69
2023-04-13T07:11:11.187Z,95088.34
2023-04-13T07:12:16.331Z,95099.41
2023-04-13T07:13:18.613Z,95101.22
2023-04-13T07:14:23.397Z,95097.88
2023-04-13T07:15:25.580Z,95101.16
2023-04-13T07:16:30.473Z,95089.03
2023-04-13T07:17:32.710Z,95100.47
2023-04-13T07:18:38.061Z,95103.78
2023-04-13T07:19:46.127Z,95103.13
2023-04-13T07:20:51.164Z,95102.13
2023-04-13T07:21:53.563Z,95103.06
2023-04-13T07:22:58.612Z,95101.53
2023-04-13T07:24:00.831Z,95110.06
2023-04-13T07:25:06.367Z,95105.31
2023-04-13T07:26:13.629Z,95109.09
2023-04-13T07:27:21.687Z,95106.06
2023-04-13T07:28:26.444Z,95105.31
2023-04-13T07:29:28.707Z,95112.91
2023-04-13T07:30:33.685Z,95116.97
2023-04-13T07:31:35.842Z,95105.78
2023-04-13T07:32:40.928Z,95109.38
2023-04-13T07:33:43.265Z,95101.22
2023-04-13T07:34:51.301Z,95115.13
2023-04-13T07:35:55.726Z,95103.72
2023-04-13T07:37:01.159Z,95106.34
2023-04-13T07:38:06.001Z,95113.25
2023-04-13T07:39:09.231Z,95112.59
2023-04-13T07:40:15.729Z,95111.97
2023-04-13T07:41:22.313Z,95115.97
2023-04-13T07:42:27.911Z,95115.44
2023-04-13T07:43:32.950Z,95119.69
2023-04-13T07:44:37.962Z,95112.81
2023-04-13T07:45:40.092Z,95113.34
2023-04-13T07:46:45.130Z,95117.94
2023-04-13T07:47:47.581Z,95116.78
2023-04-13T07:48:52.362Z,95114.34
2023-04-13T07:49:59.891Z,95120.75
2023-04-13T07:51:02.479Z,95122.72
2023-04-13T07:52:07.944Z,95111.25
2023-04-13T07:53:13.084Z,95099.66
2023-04-13T07:54:16.926Z,95116.94
2023-04-13T07:55:21.886Z,95116.84
2023-04-13T07:56:26.395Z,95117.44
2023-04-13T07:57:31.172Z,95114.81
2023-04-13T07:58:33.665Z,95109.44
2023-04-13T07:59:38.437Z,95106.94
2023-04-13T08:00:44.361Z,95112.91
2023-04-13T08:01:49.700Z,95105.78
2023-04-13T08:02:56.975Z,95111.69
2023-04-13T08:03:59.468Z,95110.78
2023-04-13T08:05:09.235Z,95101.91
2023-04-13T08:06:11.743Z,95106.59
2023-04-13T08:07:16.666Z,95105.00
2023-04-13T08:08:21.905Z,95113.16
2023-04-13T08:09:24.130Z,95105.19
2023-04-13T08:10:29.265Z,95102.38
2023-04-13T08:11:31.482Z,95100.16
2023-04-13T08:12:36.947Z,95104.41
2023-04-13T08:13:39.078Z,95111.69
2023-04-13T08:14:43.922Z,95109.63
2023-04-13T08:15:46.166Z,95107.66
2023-04-13T08:16:50.900Z,95109.16
2023-04-13T08:17:55.807Z,95109.81
2023-04-13T08:18:58.109Z,95113.44
2023-04-13T08:20:04.341Z,95111.66
2023-04-13T08:21:16.329Z,95106.84
2023-04-13T08:22:18.840Z,95102.53
2023-04-13T08:23:24.428Z,95101.03
2023-04-13T08:24:27.692Z,95107.94
2023-04-13T08:25:32.565Z,95101.31
2023-04-13T08:26:34.864Z,95101.56
2023-04-13T08:27:40.042Z,95098.97
2023-04-13T08:28:42.624Z,95098.31
2023-04-13T08:29:47.374Z,95096.22
2023-04-13T08:30:49.562Z,95099.25
2023-04-13T08:31:54.862Z,95103.94
2023-04-13T08:32:58.256Z,95107.94
2023-04-13T08:34:04.766Z,95105.81
2023-04-13T08:35:08.281Z,95111.19
2023-04-13T08:36:17.698Z,95106.72
2023-04-13T08:37:21.067Z,95114.13
2023-04-13T08:38:25.912Z,95108.50
2023-04-13T08:39:28.061Z,95110.19
2023-04-13T08:40:34.333Z,95110.00
2023-04-13T08:41:39.843Z,95113.59
2023-04-13T08:42:46.016Z,95117.22
2023-04-13T08:43:52.943Z,95118.88
2023-04-13T08:45:01.376Z,95115.56
2023-04-13T08:46:06.826Z,95116.38
2023-04-13T08:47:13.096Z,95111.19
2023-04-13T08:48:15.352Z,95114.34
2023-04-13T08:49:20.703Z,95113.16
2023-04-13T08:50:26.930Z,95113.13
2023-04-13T08:51:32.387Z,95116.03
2023-04-13T08:52:38.422Z,95116.94
2023-04-13T08:53:40.774Z,95108.81
2023-04-13T08:54:46.107Z,95119.63
2023-04-13T08:55:53.727Z,95122.78
2023-04-13T08:56:57.970Z,95122.47
2023-04-13T08:58:06.382Z,95127.28
2023-04-13T08:59:09.355Z,95121.56
2023-04-13T09:00:17.006Z,95122.19
2023-04-13T09:01:21.020Z,95111.47
2023-04-13T09:02:28.632Z,95120.38
2023-04-13T09:03:38.204Z,95118.13
2023-04-13T09:04:45.251Z,95114.09
2023-04-13T09:05:55.767Z,95109.63
2023-04-13T09:07:04.848Z,95110.00
2023-04-13T09:08:08.429Z,95107.53
2023-04-13T09:09:14.910Z,95116.56
2023-04-13T09:10:20.807Z,95112.88
2023-04-13T09:11:22.888Z,95115.00
2023-04-13T09:12:27.891Z,95117.94
2023-04-13T09:13:30.241Z,95110.19
2023-04-13T09:14:36.277Z,95112.94
2023-04-13T09:15:42.949Z,95107.41
2023-04-13T09:16:47.839Z,95124.72
2023-04-13T09:17:50.718Z,95130.56
2023-04-13T09:18:56.429Z,95120.06
2023-04-13T09:20:15.296Z,95119.53
2023-04-13T09:21:20.511Z,95125.75
2023-04-13T09:22:28.601Z,95122.53
2023-04-13T09:23:33.836Z,95119.22
2023-04-13T09:24:40.084Z,95117.84
2023-04-13T09:25:45.523Z,95122.72
2023-04-13T09:26:52.690Z,95117.38
2023-04-13T09:27:58.710Z,95109.09
2023-04-13T09:29:06.323Z,95110.94
2023-04-13T09:30:13.009Z,95112.75
2023-04-13T09:31:26.161Z,95114.53
2023-04-13T09:32:28.828Z,95107.50
2023-04-13T09:33:37.496Z,95111.50
2023-04-13T09:34:43.147Z,95115.91
2023-04-13T09:35:47.875Z,95115.00
2023-04-13T09:36:54.551Z,95110.50
2023-04-13T09:38:02.985Z,95113.16
2023-04-13T09:39:28.357Z,95110.38
2023-04-13T09:40:38.439Z,95112.97
2023-04-13T09:41:46.948Z,95114.72
2023-04-13T09:43:02.251Z,95105.97
2023-04-13T09:44:20.411Z,95110.72
2023-04-13T09:45:25.681Z,95119.69
2023-04-13T09:46:30.658Z,95116.06
2023-04-13T09:47:37.767Z,95121.13
2023-04-13T09:48:43.648Z,95113.13
2023-04-13T09:49:48.451Z,95125.47
2023-04-13T09:51:05.552Z,95137.78
2023-04-13T09:52:21.439Z,95131.91
2023-04-13T09:53:29.500Z,95130.44
2023-04-13T09:54:32.061Z,95118.66
2023-04-13T09:55:38.376Z,95126.25
2023-04-13T09:56:45.146Z,95129.97
2023-04-13T09:57:49.856Z,95129.16
2023-04-13T09:58:54.780Z,95118.59
2023-04-13T10:00:01.976Z,95121.03
2023-04-13T10:01:07.632Z,95115.06
2023-04-13T10:02:10.478Z,95101.44
2023-04-13T10:03:19.299Z,95102.78
2023-04-13T10:04:21.818Z,95099.91
2023-04-13T10:05:29.096Z,95103.09
2023-04-13T10:06:32.330Z,95095.97
2023-04-13T10:07:38.302Z,95096.16
2023-04-13T10:08:46.656Z,95088.59
2023-04-13T10:09:51.846Z,95086.19
2023-04-13T10:10:54.378Z,95075.81
2023-04-13T10:12:00.309Z,95075.22
2023-04-13T10:13:08.729Z,95064.19
2023-04-13T10:14:19.577Z,95054.50
2023-04-13T10:15:34.488Z,95051.41
2023-04-13T10:17:05.096Z,95060.31
2023-04-13T10:18:19.558Z,95053.06
2023-04-13T10:19:28.121Z,95067.38
2023-04-13T10:20:33.766Z,95061.97
2023-04-13T10:21:39.680Z,95061.13
2023-04-13T10:22:47.480Z,95069.13
2023-04-13T10:23:53.032Z,95071.00
2023-04-13T10:24:57.999Z,95063.06
2023-04-13T10:26:04.249Z,95062.59
2023-04-13T10:27:12.176Z,95076.00
2023-04-13T10:28:17.840Z,95071.41
2023-04-13T10:29:28.158Z,95074.41
2023-04-13T10:30:33.050Z,95069.72
2023-04-13T10:31:39.336Z,95069.03
2023-04-13T10:32:44.672Z,95066.16
2023-04-13T10:33:50.260Z,95062.28
2023-04-13T10:34:56.197Z,95068.78
2023-04-13T10:35:59.782Z,95060.28
2023-04-13T10:37:07.662Z,95074.06
2023-04-13T10:38:10.962Z,95072.03
2023-04-13T10:39:28.090Z,95093.47
2023-04-13T10:40:33.147Z,95073.75
2023-04-13T10:41:35.812Z,95093.25
2023-04-13T10:42:52.370Z,95094.16
2023-04-13T10:44:05.336Z,95087.00
2023-04-13T10:45:20.848Z,95089.41
2023-04-13T10:46:25.860Z,95090.97
2023-04-13T10:47:40.118Z,95085.75
2023-04-13T10:48:46.852Z,95089.13
2023-04-13T10:49:50.780Z,95090.47
2023-04-13T10:51:01.072Z,95077.72
2023-04-13T10:52:06.569Z,95090.25
2023-04-13T10:53:11.526Z,95084.19
2023-04-13T10:54:18.003Z,95083.22
2023-04-13T10:55:26.068Z,95087.19
2023-04-13T10:56:30.765Z,95082.47
2023-04-13T10:57:34.752Z,95083.06
2023-04-13T10:58:39.515Z,95077.50
2023-04-13T10:59:56.423Z,95091.28
2023-04-13T11:01:03.543Z,95076.41
2023-04-13T11:02:07.133Z,95089.84
2023-04-13T11:03:12.547Z,95084.84
2023-04-13T11:04:19.011Z,95081.84
2023-04-13T11:05:21.651Z,95087.47
2023-04-13T11:06:27.305Z,95086.97
2023-04-13T11:07:30.018Z,95083.72
2023-04-13T11:08:36.529Z,95093.78
2023-04-13T11:09:42.745Z,95100.94
2023-04-13T11:10:54.205Z,95104.97
2023-04-13T11:11:56.426Z,95105.81
2023-04-13T11:13:02.211Z,95110.56
2023-04-13T11:14:04.693Z,95124.25
2023-04-13T11:15:11.465Z,95114.97
2023-04-13T11:16:14.146Z,95127.88
2023-04-13T11:17:22.655Z,95129.22
2023-04-13T11:18:26.728Z,95115.00
2023-04-13T11:19:31.634Z,95116.91
2023-04-13T11:20:37.421Z,95119.91
2023-04-13T11:21:39.489Z,95128.59
2023-04-13T11:22:47.303Z,95113.59
2023-04-13T11:23:55.575Z,95114.59
2023-04-13T11:25:12.608Z,95113.53
2023-04-13T11:26:17.882Z,95108.91
2023-04-13T11:27:21.786Z,95107.25
2023-04-13T11:28:27.883Z,95101.44
2023-04-13T11:29:32.742Z,95110.19
2023-04-13T11:30:35.138Z,95101.78
2023-04-13T11:31:41.195Z,95091.03
2023-04-13T11:32:48.933Z,95099.59
2023-04-13T11:33:51.649Z,95103.75
2023-04-13T11:34:58.460Z,95091.19
2023-04-13T11:36:04.379Z,95093.63
2023-04-13T11:37:07.680Z,95095.47
2023-04-13T11:38:20.518Z,95092.72
2023-04-13T11:39:25.293Z,95111.31
2023-04-13T11:40:33.178Z,95094.41
2023-04-13T11:41:40.239Z,95097.09
2023-04-13T11:42:47.198Z,95081.53
2023-04-13T11:43:52.480Z,95079.81
2023-04-13T11:44:55.851Z,95083.56
2023-04-13T11:46:02.329Z,95086.94
2023-04-13T11:47:11.104Z,95073.66
2023-04-13T11:48:14.437Z,95084.28
2023-04-13T11:49:19.577Z,95091.63
2023-04-13T11:50:22.642Z,95095.38
2023-04-13T11:51:28.576Z,95088.22
2023-04-13T11:52:32.642Z,95092.47
2023-04-13T11:53:38.966Z,95086.31
2023-04-13T11:54:43.125Z,95083.47
2023-04-13T11:55:53.682Z,95090.56
2023-04-13T11:56:59.194Z,95087.50
2023-04-13T11:58:10.155Z,95086.97
2023-04-13T11:59:15.892Z,95085.13
2023-04-13T12:00:24.442Z,95087.44
2023-04-13T12:01:34.161Z,95099.41
2023-04-13T12:03:00.477Z,95096.09
2023-04-13T12:05:22.881Z,95088.50
2023-04-13T12:06:28.060Z,95081.13
2023-04-13T12:07:31.379Z,95090.00
2023-04-13T12:08:37.326Z,95087.66
2023-04-13T12:11:30.205Z,95080.50
2023-04-13T12:12:51.478Z,95089.38
2023-04-13T12:14:07.268Z,95078.16
2023-04-13T12:17:01.785Z,95071.44
2023-04-13T12:18:02.366Z,95076.91
2023-04-13T12:19:12.807Z,95077.31
2023-04-13T12:20:16.641Z,95069.44
2023-04-13T12:21:23.694Z,95076.06
2023-04-13T12:22:47.401Z,95064.28
2023-04-13T12:23:58.040Z,95059.34
2023-04-13T12:25:03.340Z,95062.91
2023-04-13T12:26:33.164Z,95062.94
2023-04-13T12:27:43.161Z,95059.31
2023-04-13T12:28:48.039Z,95059.22
2023-04-13T12:29:52.827Z,95056.50
2023-04-13T12:30:54.930Z,95059.81
2023-04-13T12:32:05.682Z,95055.44
2023-04-13T12:33:12.429Z,95069.72
2023-04-13T12:34:17.077Z,95065.03
2023-04-13T12:35:19.730Z,95069.09
2023-04-13T12:36:27.121Z,95077.69
2023-04-13T12:37:29.281Z,95070.66
2023-04-13T12:38:34.762Z,95074.59
2023-04-13T12:39:39.549Z,95066.47
2023-04-13T12:40:41.975Z,95069.53
2023-04-13T12:41:49.796Z,95075.16
2023-04-13T12:42:52.157Z,95066.16
2023-04-13T12:43:57.390Z,95065.44
2023-04-13T12:45:02.300Z,95071.88
2023-04-13T12:46:04.542Z,95077.00
2023-04-13T12:47:11.271Z,95085.13
2023-04-13T12:48:13.470Z,95072.31
2023-04-13T12:49:18.713Z,95073.94
2023-04-13T12:50:23.496Z,95083.72
2023-04-13T12:51:26.406Z,95079.53
2023-04-13T12:52:32.570Z,95074.97
2023-04-13T12:53:35.138Z,95070.00
2023-04-13T12:54:40.426Z,95074.38
2023-04-13T12:55:46.229Z,95078.53